Time;durP1;ratioP1;P1;durP2;ratioP2;P2;SDS_P1;SDS_P2;PMS_P1;PMS_P2;Temp;Humidity;BMP_temperature;BMP_pressure;BME280_temperature;BME280_humidity;BME280_pressure;Samples;Min_cycle;Max_cycle;Signal;HPM_P1;HPM_P2
2021/01/28 00:00:28;;;;;;;4.60;4.20;;;;;;;1.90;99.88;96454.22;5051409;28;20690;-67
2021/01/28 00:02:54;;;;;;;6.90;5.20;;;;;;;1.97;100.00;96462.06;5052068;28;20404;-68
2021/01/28 00:05:21;;;;;;;5.03;4.30;;;;;;;1.90;100.00;96461.16;5039009;28;20746;-67
2021/01/28 00:07:47;;;;;;;4.73;4.30;;;;;;;1.86;100.00;96458.16;5036657;28;20186;-67
2021/01/28 00:10:14;;;;;;;5.07;4.30;;;;;;;1.94;100.00;96459.84;5055379;28;20653;-67
2021/01/28 00:12:40;;;;;;;4.80;4.37;;;;;;;1.98;99.72;96458.50;5054467;28;20177;-67
2021/01/28 00:15:07;;;;;;;4.97;4.37;;;;;;;1.93;100.00;96455.66;5054233;28;20268;-67
2021/01/28 00:17:33;;;;;;;4.80;4.00;;;;;;;2.05;100.00;96456.81;5054564;28;20190;-73
2021/01/28 00:19:58;;;;;;;4.23;3.83;;;;;;;1.96;100.00;96452.69;5053525;28;20185;-70
2021/01/28 00:22:24;;;;;;;4.50;4.10;;;;;;;1.93;100.00;96443.53;5054777;28;20224;-71
2021/01/28 00:24:49;;;;;;;4.37;3.97;;;;;;;2.01;100.00;96442.63;5053747;28;20233;-70
2021/01/28 00:27:15;;;;;;;4.63;3.90;;;;;;;2.07;99.47;96447.88;5055084;28;20194;-70
2021/01/28 00:29:40;;;;;;;4.00;3.60;;;;;;;2.02;98.80;96442.44;5054725;28;20174;-70
2021/01/28 00:32:06;;;;;;;4.80;4.30;;;;;;;2.00;100.00;96447.03;5036675;28;20216;-70
2021/01/28 00:34:32;;;;;;;4.47;3.93;;;;;;;1.96;100.00;96447.53;5036514;28;20289;-74
2021/01/28 00:36:57;;;;;;;4.13;3.77;;;;;;;2.05;99.97;96444.69;5036342;28;20190;-70
2021/01/28 00:39:22;;;;;;;4.00;3.60;;;;;;;2.02;99.16;96431.31;5054296;28;20186;-70
2021/01/28 00:41:48;;;;;;;3.93;3.53;;;;;;;2.12;98.70;96439.56;5019336;28;20196;-70
2021/01/28 00:44:14;;;;;;;4.27;3.87;;;;;;;2.02;100.00;96439.06;5054652;28;20666;-70
2021/01/28 00:46:40;;;;;;;3.60;3.30;;;;;;;2.10;98.53;96438.97;5052423;28;20282;-70
2021/01/28 00:49:06;;;;;;;3.57;3.27;;;;;;;2.12;99.41;96434.41;5054528;28;20189;-70
2021/01/28 00:51:32;;;;;;;4.40;3.63;;;;;;;2.22;98.42;96426.38;5054157;28;20533;-74
2021/01/28 00:53:58;;;;;;;3.77;3.37;;;;;;;2.22;98.79;96423.78;5053562;28;20642;-70
2021/01/28 00:56:23;;;;;;;4.23;3.83;;;;;;;1.96;99.14;96417.31;5054163;28;20189;-70
2021/01/28 00:58:50;;;;;;;3.50;3.07;;;;;;;1.99;99.08;96413.59;5053611;28;20650;-70
2021/01/28 01:01:15;;;;;;;4.13;3.73;;;;;;;2.14;98.34;96418.72;5053423;28;20181;-70
2021/01/28 01:03:40;;;;;;;7.30;4.03;;;;;;;2.11;99.17;96432.00;5035408;28;20721;-70
2021/01/28 01:06:06;;;;;;;4.27;3.87;;;;;;;2.02;98.89;96416.59;5054195;28;20185;-70
2021/01/28 01:08:32;;;;;;;4.10;3.80;;;;;;;1.96;99.64;96401.03;5035528;28;20210;-75
2021/01/28 01:11:02;;;;;;;3.70;3.40;;;;;;;2.01;99.91;96398.69;5053354;28;20182;-70
2021/01/28 01:13:32;;;;;;;3.50;3.20;;;;;;;2.02;100.00;96402.88;5053414;28;20255;-71
2021/01/28 01:15:59;;;;;;;3.67;3.37;;;;;;;2.09;99.54;96396.81;5037357;28;20188;-69
2021/01/28 01:18:28;;;;;;;3.30;3.00;;;;;;;2.10;99.42;96392.44;5053619;28;20668;-70
2021/01/28 01:20:54;;;;;;;4.37;3.60;;;;;;;2.14;98.88;96396.25;5052928;28;20508;-70
2021/01/28 01:23:20;;;;;;;3.93;3.10;;;;;;;2.16;99.08;96396.06;5053418;28;20194;-70
2021/01/28 01:25:46;;;;;;;3.87;3.50;;;;;;;2.18;99.10;96396.69;5052664;28;20209;-70
2021/01/28 01:28:12;;;;;;;3.73;3.43;;;;;;;2.23;98.25;96395.13;5053799;28;20236;-71
2021/01/28 01:30:38;;;;;;;3.73;3.43;;;;;;;2.15;98.63;96399.63;5051283;28;20185;-71
2021/01/28 01:33:04;;;;;;;3.40;3.20;;;;;;;2.20;98.56;96399.88;5053866;28;20658;-70
2021/01/28 01:35:29;;;;;;;3.27;2.97;;;;;;;2.12;99.63;96405.19;5053667;28;20222;-70
2021/01/28 01:37:56;;;;;;;3.60;3.30;;;;;;;2.15;98.67;96407.41;5052131;28;20190;-70
2021/01/28 01:40:36;;;;;;;3.47;3.13;;;;;;;2.07;99.35;96398.75;5053640;28;20264;-71
2021/01/28 01:43:04;;;;;;;3.70;3.40;;;;;;;2.07;99.48;96397.97;5052541;28;20190;-70
2021/01/28 01:45:33;;;;;;;3.33;3.03;;;;;;;2.16;99.66;96388.31;5035564;28;20182;-70
2021/01/28 01:48:22;;;;;;;3.53;2.93;;;;;;;2.21;98.43;96389.38;5051862;28;20198;-70
2021/01/28 01:51:14;;;;;;;3.70;3.40;;;;;;;2.18;99.00;96378.59;5050000;28;20202;-71
2021/01/28 01:53:44;;;;;;;5.40;3.50;;;;;;;2.25;98.35;96367.31;5052305;28;20239;-72
2021/01/28 01:56:20;;;;;;;3.70;3.30;;;;;;;2.17;98.34;96362.28;5053058;28;20228;-70
2021/01/28 01:59:06;;;;;;;3.47;3.17;;;;;;;2.07;99.50;96365.16;5052237;28;20216;-70
2021/01/28 02:01:39;;;;;;;3.50;3.20;;;;;;;2.11;99.46;96357.06;5051373;28;20239;-74
2021/01/28 02:04:06;;;;;;;3.03;2.77;;;;;;;2.15;98.71;96346.16;5053129;28;20222;-70
2021/01/28 02:06:38;;;;;;;3.43;2.93;;;;;;;2.23;99.02;96345.25;5051443;28;20208;-75
2021/01/28 02:09:06;;;;;;;3.93;3.40;;;;;;;2.25;97.91;96336.31;5053124;28;20686;-70
2021/01/28 02:11:32;;;;;;;3.90;3.57;;;;;;;2.18;98.96;96330.28;5052327;28;20192;-74
2021/01/28 02:14:01;;;;;;;3.57;3.27;;;;;;;2.19;98.35;96328.50;5052301;28;20185;-71
2021/01/28 02:16:30;;;;;;;3.50;3.20;;;;;;;2.24;98.97;96336.47;5035365;28;20546;-70
2021/01/28 02:18:58;;;;;;;3.50;3.20;;;;;;;2.20;98.26;96332.69;5050458;28;20239;-70
2021/01/28 02:21:33;;;;;;;3.67;3.33;;;;;;;2.18;99.06;96327.69;5052450;28;20182;-70
2021/01/28 02:24:28;;;;;;;2.77;2.57;;;;;;;2.22;98.29;96322.97;5051756;28;20220;-71
2021/01/28 02:26:55;;;;;;;3.37;3.10;;;;;;;2.28;98.17;96317.84;5050905;28;20665;-70
2021/01/28 02:29:23;;;;;;;3.40;3.10;;;;;;;2.28;98.54;96317.84;5052232;28;20702;-70
2021/01/28 02:31:50;;;;;;;3.20;2.90;;;;;;;2.25;98.84;96314.81;5034565;28;20634;-71
2021/01/28 02:34:17;;;;;;;3.40;3.13;;;;;;;2.38;97.82;96305.41;5052244;28;20224;-71
2021/01/28 02:36:47;;;;;;;3.10;2.80;;;;;;;2.35;98.56;96298.00;5050797;28;20240;-71
2021/01/28 02:39:17;;;;;;;3.67;3.37;;;;;;;2.32;98.32;96298.38;5051861;28;20595;-71
2021/01/28 02:41:46;;;;;;;3.03;2.70;;;;;;;2.33;98.15;96294.03;5051840;28;20517;-70
2021/01/28 02:44:11;;;;;;;3.00;2.73;;;;;;;2.24;98.65;96285.59;5052467;28;20209;-70
2021/01/28 02:46:37;;;;;;;2.83;2.63;;;;;;;2.29;98.25;96280.66;5051221;28;20194;-71
2021/01/28 02:49:03;;;;;;;3.23;2.90;;;;;;;2.35;98.45;96281.69;5051655;28;20639;-70
2021/01/28 02:51:29;;;;;;;3.20;2.90;;;;;;;2.42;98.12;96282.53;5033686;28;20182;-71
2021/01/28 02:53:54;;;;;;;3.27;2.97;;;;;;;2.42;97.85;96277.38;5051132;28;20239;-70
2021/01/28 02:56:21;;;;;;;2.93;2.73;;;;;;;2.50;97.61;96285.00;5051847;28;20227;-71
2021/01/28 02:58:47;;;;;;;2.53;2.33;;;;;;;2.53;97.83;96283.81;5050842;28;20205;-72
2021/01/28 03:01:13;;;;;;;2.93;2.73;;;;;;;2.41;97.37;96278.34;5051454;28;20186;-70
2021/01/28 03:03:38;;;;;;;3.07;2.80;;;;;;;2.40;98.32;96280.13;5050935;28;20208;-71
2021/01/28 03:06:05;;;;;;;2.60;2.40;;;;;;;2.48;98.19;96277.41;5051609;28;20615;-71
2021/01/28 03:08:30;;;;;;;2.50;2.30;;;;;;;2.55;98.24;96271.50;5051569;28;20186;-68
2021/01/28 03:10:56;;;;;;;2.87;2.67;;;;;;;2.53;98.91;96266.50;5050241;28;20204;-69
2021/01/28 03:13:22;;;;;;;2.90;2.50;;;;;;;2.51;97.64;96253.75;5050332;28;20365;-69
2021/01/28 03:15:49;;;;;;;2.60;2.40;;;;;;;2.50;98.15;96254.78;5050619;28;20178;-69
2021/01/28 03:18:14;;;;;;;2.53;2.37;;;;;;;2.65;97.33;96252.06;5050919;28;20642;-69
2021/01/28 03:20:40;;;;;;;2.80;2.57;;;;;;;2.57;97.88;96243.63;5050412;28;20265;-69
2021/01/28 03:23:08;;;;;;;2.77;2.57;;;;;;;2.58;97.39;96233.09;5051390;28;20186;-68
2021/01/28 03:25:34;;;;;;;2.93;2.70;;;;;;;2.66;97.36;96235.56;5049594;28;20525;-72
2021/01/28 03:27:59;;;;;;;2.70;2.50;;;;;;;2.64;97.14;96234.94;5050858;28;20182;-69
2021/01/28 03:30:34;;;;;;;2.93;2.67;;;;;;;2.64;98.03;96234.13;5050672;28;20582;-70
2021/01/28 03:33:01;;;;;;;2.83;2.50;;;;;;;2.58;97.58;96233.09;5037865;28;20170;-69
2021/01/28 03:35:27;;;;;;;3.03;2.73;;;;;;;2.63;97.58;96235.13;5032708;28;20222;-69
2021/01/28 03:37:53;;;;;;;2.60;2.40;;;;;;;2.66;97.42;96235.56;5031894;28;20273;-69
2021/01/28 03:40:22;;;;;;;2.80;2.57;;;;;;;2.60;97.98;96238.91;5051524;28;20216;-69
2021/01/28 03:42:47;;;;;;;2.60;2.40;;;;;;;2.57;97.71;96228.13;5050503;28;20599;-69
2021/01/28 03:45:13;;;;;;;2.87;2.67;;;;;;;2.68;97.79;96228.38;5051310;28;20198;-70
2021/01/28 03:47:39;;;;;;;2.80;2.60;;;;;;;2.69;97.76;96230.00;5050327;28;20190;-69
2021/01/28 03:50:07;;;;;;;2.90;2.70;;;;;;;2.70;98.00;96212.69;5051229;28;20189;-69
2021/01/28 03:52:32;;;;;;;2.77;2.53;;;;;;;2.73;97.35;96205.31;5050270;28;20189;-72
2021/01/28 03:54:58;;;;;;;2.90;2.60;;;;;;;2.69;98.22;96192.97;5050629;28;20190;-69
2021/01/28 03:57:23;;;;;;;2.90;2.70;;;;;;;2.67;98.20;96188.00;5050831;28;20686;-69
2021/01/28 03:59:49;;;;;;;3.47;2.60;;;;;;;2.75;98.06;96182.66;5050564;28;20182;-70
2021/01/28 04:02:14;;;;;;;2.60;2.40;;;;;;;2.78;97.78;96171.94;5051146;28;20211;-69
2021/01/28 04:04:40;;;;;;;2.50;2.30;;;;;;;2.63;98.42;96158.31;5049270;28;20255;-69
2021/01/28 04:07:05;;;;;;;3.07;2.80;;;;;;;2.66;99.34;96163.13;5051419;28;20197;-69
2021/01/28 04:09:30;;;;;;;3.53;2.47;;;;;;;2.69;99.58;96165.31;5050322;28;20196;-68
2021/01/28 04:11:56;;;;;;;2.33;2.10;;;;;;;2.72;99.88;96161.56;5050316;28;20276;-68
2021/01/28 04:14:21;;;;;;;2.40;2.20;;;;;;;2.80;98.62;96164.75;5051071;28;20265;-68
2021/01/28 04:16:47;;;;;;;2.60;2.40;;;;;;;2.77;99.96;96149.63;5050210;28;20216;-69
2021/01/28 04:19:12;;;;;;;2.43;2.23;;;;;;;2.80;99.43;96146.66;5050530;28;20568;-69
2021/01/28 04:21:38;;;;;;;2.87;2.57;;;;;;;2.76;99.65;96137.69;5049830;28;20192;-69
2021/01/28 04:24:04;;;;;;;2.63;2.43;;;;;;;2.78;99.26;96120.19;5051017;28;20214;-69
2021/01/28 04:26:29;;;;;;;3.13;2.70;;;;;;;2.87;98.90;96124.19;5051188;28;20186;-69
2021/01/28 04:28:55;;;;;;;3.07;2.77;;;;;;;2.80;99.14;96122.56;5049958;28;20986;-70
2021/01/28 04:31:21;;;;;;;2.73;2.53;;;;;;;2.86;98.99;96108.84;5050137;28;20201;-69
2021/01/28 04:33:47;;;;;;;3.27;2.97;;;;;;;2.86;98.89;96101.09;5049623;28;20272;-70
2021/01/28 04:36:12;;;;;;;3.37;3.03;;;;;;;2.82;99.41;96103.28;5050744;28;20313;-70
2021/01/28 04:38:38;;;;;;;3.37;2.90;;;;;;;2.75;99.56;96097.28;5049505;28;20187;-70
2021/01/28 04:41:16;;;;;;;3.10;2.80;;;;;;;2.82;98.87;96086.94;5050300;28;20182;-69
2021/01/28 04:43:42;;;;;;;4.17;3.10;;;;;;;2.84;98.92;96072.81;5049757;28;20202;-69
2021/01/28 04:46:25;;;;;;;3.90;3.40;;;;;;;2.79;99.04;96077.78;5050755;28;20182;-69
2021/01/28 04:48:52;;;;;;;3.60;3.20;;;;;;;2.83;98.40;96071.25;5049752;28;20199;-69
2021/01/28 04:51:19;;;;;;;3.70;3.40;;;;;;;2.82;98.18;96074.00;5052318;28;20194;-70
2021/01/28 04:53:54;;;;;;;3.10;2.87;;;;;;;2.74;98.51;96072.38;5052632;28;20178;-69
2021/01/28 04:56:25;;;;;;;3.50;3.20;;;;;;;2.67;98.98;96073.38;5036963;28;20205;-69
2021/01/28 04:59:18;;;;;;;3.27;2.97;;;;;;;2.77;99.42;96063.44;5053579;28;20178;-69
2021/01/28 05:01:43;;;;;;;3.40;3.00;;;;;;;2.78;99.54;96060.69;5041659;28;20285;-68
2021/01/28 05:04:12;;;;;;;3.63;3.20;;;;;;;2.80;99.20;96058.69;5054131;28;20286;-68
2021/01/28 05:06:38;;;;;;;3.10;2.80;;;;;;;2.87;98.33;96058.69;5053565;28;20209;-69
2021/01/28 05:09:05;;;;;;;3.53;3.03;;;;;;;2.76;99.19;96046.34;5053759;28;20647;-68
2021/01/28 05:11:33;;;;;;;3.17;2.87;;;;;;;2.88;98.39;96040.38;5053337;28;20220;-69
2021/01/28 05:14:27;;;;;;;3.80;3.20;;;;;;;2.88;97.70;96030.03;5053664;28;20189;-68
2021/01/28 05:16:56;;;;;;;3.83;3.20;;;;;;;2.85;98.11;96020.06;5048433;28;20224;-68
2021/01/28 05:19:49;;;;;;;3.50;3.20;;;;;;;2.92;98.75;96020.09;5053380;28;20193;-68
2021/01/28 05:22:26;;;;;;;3.50;3.20;;;;;;;2.96;98.00;96017.88;5052181;28;20263;-68
2021/01/28 05:24:55;;;;;;;3.97;3.60;;;;;;;3.01;98.20;96010.34;5052668;28;20248;-68
2021/01/28 05:27:33;;;;;;;4.33;3.37;;;;;;;2.87;98.55;96005.16;5053578;28;20198;-69
2021/01/28 05:30:03;;;;;;;5.70;3.73;;;;;;;2.81;99.38;96011.13;5052520;28;20210;-69
2021/01/28 05:32:40;;;;;;;4.97;3.20;;;;;;;2.94;98.62;96005.16;5053105;28;20213;-69
2021/01/28 05:35:26;;;;;;;3.40;3.00;;;;;;;2.91;97.92;95990.81;5052710;28;20221;-69
2021/01/28 05:38:11;;;;;;;3.50;3.03;;;;;;;2.87;99.23;95989.63;5049649;28;20205;-69
2021/01/28 05:40:39;;;;;;;3.50;3.20;;;;;;;2.94;98.68;95974.09;5053345;28;20174;-72
2021/01/28 05:43:31;;;;;;;3.07;2.70;;;;;;;2.86;99.27;95984.63;5053515;28;20177;-69
2021/01/28 05:46:29;;;;;;;3.33;3.03;;;;;;;2.87;98.88;95963.75;5051659;28;20182;-68
2021/01/28 05:49:03;;;;;;;3.10;2.73;;;;;;;2.85;99.01;95963.13;5019321;28;20239;-69
2021/01/28 05:51:46;;;;;;;2.57;2.37;;;;;;;2.99;98.31;95969.13;5053112;28;20646;-69
2021/01/28 05:54:14;;;;;;;3.20;2.90;;;;;;;2.97;99.22;95957.38;5053443;28;20202;-69
2021/01/28 05:57:06;;;;;;;3.63;3.00;;;;;;;2.95;99.17;95949.81;5051397;28;20185;-69
2021/01/28 05:59:57;;;;;;;3.80;3.13;;;;;;;2.79;100.00;95955.38;5041309;28;20265;-69
2021/01/28 06:03:23;;;;;;;4.17;3.33;;;;;;;2.87;99.14;95947.41;5053126;28;20193;-68
2021/01/28 06:06:05;;;;;;;3.60;3.10;;;;;;;2.80;99.55;95934.47;4971103;28;20192;-69
2021/01/28 06:08:55;;;;;;;3.70;3.27;;;;;;;2.70;99.91;95930.69;4971911;28;20200;-68
2021/01/28 06:11:39;;;;;;;5.30;3.33;;;;;;;2.79;99.31;95927.72;4971802;28;20200;-68
2021/01/28 06:14:39;;;;;;;10.40;4.07;;;;;;;2.80;99.72;95921.53;4971952;28;20191;-69
2021/01/28 06:17:26;;;;;;;5.13;3.97;;;;;;;2.84;99.33;95914.19;4971576;28;20243;-69
2021/01/28 06:20:01;;;;;;;8.67;5.10;;;;;;;2.78;100.00;95912.41;4970987;28;20250;-69
2021/01/28 06:22:44;;;;;;;8.73;5.50;;;;;;;2.78;99.99;95900.25;4970971;28;20204;-69
2021/01/28 06:25:28;;;;;;;5.90;4.47;;;;;;;2.87;100.00;95895.66;4971529;28;20240;-69
2021/01/28 06:28:36;;;;;;;5.20;3.97;;;;;;;2.91;99.15;95896.84;4970511;28;20651;-68
2021/01/28 06:31:31;;;;;;;5.20;4.07;;;;;;;2.83;99.56;95882.34;4969294;28;20203;-68
2021/01/28 06:34:08;;;;;;;4.20;3.80;;;;;;;2.84;99.04;95889.09;4957704;28;20271;-69
2021/01/28 06:36:56;;;;;;;4.93;3.70;;;;;;;2.75;100.00;95877.38;5004625;28;20604;-68
2021/01/28 06:39:26;;;;;;;5.50;3.77;;;;;;;2.71;100.00;95875.38;5051164;28;20190;-69
2021/01/28 06:42:26;;;;;;;4.40;3.73;;;;;;;2.76;100.00;95865.22;5033789;28;20568;-68
2021/01/28 06:45:02;;;;;;;3.87;3.40;;;;;;;2.83;100.00;95869.41;5036537;28;20247;-69
2021/01/28 06:47:53;;;;;;;4.17;3.43;;;;;;;2.80;100.00;95869.00;5052328;28;20176;-69
2021/01/28 06:50:29;;;;;;;6.10;3.63;;;;;;;2.84;100.00;95872.78;5052219;28;20177;-68
2021/01/28 06:53:02;;;;;;;4.00;3.60;;;;;;;2.78;100.00;95865.84;5043184;28;20201;-68
2021/01/28 06:55:30;;;;;;;4.50;3.53;;;;;;;2.76;100.00;95860.84;5052067;28;20232;-68
2021/01/28 06:58:11;;;;;;;5.63;3.80;;;;;;;2.84;100.00;95852.88;5051329;28;20638;-68
2021/01/28 07:01:03;;;;;;;5.33;3.90;;;;;;;2.90;100.00;95851.25;5051143;28;20311;-71
2021/01/28 07:03:47;;;;;;;3.90;3.50;;;;;;;2.89;100.00;95847.13;5040288;28;20174;-68
2021/01/28 07:06:44;;;;;;;4.90;3.73;;;;;;;2.87;100.00;95839.53;5039117;28;20593;-68
2021/01/28 07:09:22;;;;;;;4.83;3.50;;;;;;;2.90;100.00;95833.94;5044213;28;20214;-68
2021/01/28 07:11:53;;;;;;;4.90;4.27;;;;;;;3.00;100.00;95848.28;5050318;28;20205;-71
2021/01/28 07:14:19;;;;;;;4.70;3.90;;;;;;;2.98;100.00;95845.09;5051624;28;20639;-69
2021/01/28 07:16:58;;;;;;;3.73;3.43;;;;;;;2.98;100.00;95842.50;5050789;28;20224;-71
2021/01/28 07:19:28;;;;;;;4.10;3.70;;;;;;;2.91;100.00;95842.50;5037831;28;20210;-70
2021/01/28 07:21:55;;;;;;;5.43;3.47;;;;;;;3.05;100.00;95841.50;5050501;28;20257;-70
2021/01/28 07:24:25;;;;;;;5.60;4.17;;;;;;;3.07;100.00;95823.16;5033648;28;20738;-69
2021/01/28 07:27:01;;;;;;;4.70;4.03;;;;;;;3.10;100.00;95825.34;5050424;28;20238;-69
2021/01/28 07:29:29;;;;;;;3.33;3.03;;;;;;;3.11;100.00;95812.22;5049935;28;20267;-71
2021/01/28 07:31:56;;;;;;;3.47;3.17;;;;;;;3.27;100.00;95804.00;5050359;28;20181;-71
2021/01/28 07:34:21;;;;;;;3.97;3.30;;;;;;;3.22;100.00;95796.06;5050326;28;20210;-69
2021/01/28 07:36:50;;;;;;;3.60;3.07;;;;;;;3.17;100.00;95798.47;5050393;28;20716;-69
2021/01/28 07:39:30;;;;;;;2.93;2.73;;;;;;;3.19;100.00;95787.88;5050957;28;20186;-69
2021/01/28 07:41:59;;;;;;;2.40;2.13;;;;;;;3.16;100.00;95777.94;5050747;28;20209;-69
2021/01/28 07:44:24;;;;;;;5.00;2.30;;;;;;;3.17;100.00;95776.97;5051383;28;20723;-70
2021/01/28 07:46:51;;;;;;;4.60;3.10;;;;;;;3.14;100.00;95775.56;5049876;28;20190;-69
2021/01/28 07:49:22;;;;;;;2.83;2.53;;;;;;;3.18;100.00;95778.53;5051354;28;20199;-68
2021/01/28 07:52:30;;;;;;;3.20;2.90;;;;;;;3.17;100.00;95767.41;5050486;28;20170;-67
2021/01/28 07:54:57;;;;;;;3.33;2.90;;;;;;;3.19;100.00;95762.78;5022637;28;20244;-70
2021/01/28 07:57:29;;;;;;;3.23;2.53;;;;;;;3.17;100.00;95753.66;5051214;28;20265;-69
2021/01/28 07:59:57;;;;;;;3.77;2.93;;;;;;;3.30;100.00;95756.97;5050305;28;20182;-70
2021/01/28 08:02:26;;;;;;;2.80;2.40;;;;;;;3.30;100.00;95748.41;5051268;28;20272;-71
2021/01/28 08:05:03;;;;;;;6.87;2.70;;;;;;;3.34;100.00;95747.00;5050101;28;20803;-72
2021/01/28 08:07:43;;;;;;;2.47;2.27;;;;;;;3.27;100.00;95741.84;5051121;28;20170;-73
2021/01/28 08:10:27;;;;;;;2.27;2.07;;;;;;;3.32;100.00;95743.81;5040161;28;20173;-73
2021/01/28 08:12:55;;;;;;;2.30;2.10;;;;;;;3.35;100.00;95736.41;5032835;28;20647;-72
2021/01/28 08:15:44;;;;;;;2.97;2.37;;;;;;;3.32;100.00;95723.09;5048625;28;20204;-68
2021/01/28 08:18:17;;;;;;;5.23;2.50;;;;;;;5.00;100.00;95722.09;5050568;28;20600;-64
2021/01/28 08:20:43;;;;;;;2.30;2.10;;;;;;;5.50;99.53;95712.28;5049981;28;20183;-72
2021/01/28 08:23:26;;;;;;;3.63;2.37;;;;;;;4.70;98.05;95722.00;5049575;28;20190;-72
2021/01/28 08:26:01;;;;;;;2.47;2.27;;;;;;;4.29;98.84;95708.88;5037632;28;20197;-72
2021/01/28 08:28:30;;;;;;;3.53;2.20;;;;;;;3.95;99.54;95712.75;5054704;28;20181;-70
2021/01/28 08:31:01;;;;;;;2.40;2.20;;;;;;;3.79;100.00;95701.06;5053221;28;20225;-70
2021/01/28 08:33:28;;;;;;;2.00;1.80;;;;;;;3.80;100.00;95701.88;5054362;28;20239;-69
2021/01/28 08:35:58;;;;;;;2.13;1.93;;;;;;;3.74;100.00;95696.53;5053593;28;20221;-68
2021/01/28 08:38:29;;;;;;;2.63;2.20;;;;;;;3.71;100.00;95681.41;5054562;28;20182;-67
2021/01/28 08:41:00;;;;;;;2.10;1.90;;;;;;;3.56;100.00;95678.34;5053124;28;20182;-68
2021/01/28 08:43:26;;;;;;;2.20;1.87;;;;;;;3.65;100.00;95671.88;5054248;28;20677;-69
2021/01/28 08:46:07;;;;;;;1.70;1.60;;;;;;;3.61;100.00;95667.34;5053286;28;20178;-69
2021/01/28 08:48:32;;;;;;;3.10;2.10;;;;;;;3.68;100.00;95658.50;5053040;28;20265;-70
2021/01/28 08:51:08;;;;;;;2.90;2.10;;;;;;;3.70;100.00;95651.31;5053306;28;20300;-70
2021/01/28 08:53:34;;;;;;;2.33;1.77;;;;;;;3.79;100.00;95646.66;5038545;28;20186;-69
2021/01/28 08:56:16;;;;;;;1.80;1.70;;;;;;;3.82;100.00;95648.84;5053631;28;20796;-68
2021/01/28 08:58:42;;;;;;;1.50;1.40;;;;;;;3.78;100.00;95642.50;5053498;28;20657;-71
2021/01/28 09:01:10;;;;;;;1.80;1.70;;;;;;;3.80;100.00;95637.88;5052891;28;20182;-70
2021/01/28 09:04:00;;;;;;;2.10;1.90;;;;;;;3.76;100.00;95629.75;5054105;28;20244;-70
2021/01/28 09:06:26;;;;;;;1.90;1.80;;;;;;;3.79;100.00;95619.97;5054029;28;20544;-69
2021/01/28 09:09:05;;;;;;;1.77;1.50;;;;;;;3.81;100.00;95612.75;5035421;28;20197;-69
2021/01/28 09:11:31;;;;;;;2.73;1.90;;;;;;;3.82;100.00;95615.16;5052805;28;20663;-70
2021/01/28 09:14:04;;;;;;;2.83;1.97;;;;;;;3.88;100.00;95618.69;5053553;28;20252;-73
2021/01/28 09:16:29;;;;;;;2.60;1.97;;;;;;;3.87;100.00;95611.91;5054511;28;20236;-68
2021/01/28 09:19:08;;;;;;;2.33;1.73;;;;;;;3.86;100.00;95605.94;5051277;28;20651;-68
2021/01/28 09:21:40;;;;;;;1.77;1.67;;;;;;;3.85;100.00;95593.97;5035892;28;20177;-68
2021/01/28 09:24:21;;;;;;;1.97;1.80;;;;;;;3.84;100.00;95595.00;5052908;28;20213;-67
2021/01/28 09:27:03;;;;;;;1.77;1.67;;;;;;;3.94;100.00;95597.09;5052058;28;20196;-70
2021/01/28 09:29:36;;;;;;;1.90;1.80;;;;;;;3.87;100.00;95586.00;5049315;28;20276;-70
2021/01/28 09:32:11;;;;;;;2.13;1.93;;;;;;;3.95;100.00;95581.34;5054060;28;20810;-70
2021/01/28 09:34:37;;;;;;;2.30;1.60;;;;;;;3.96;100.00;95582.91;5053386;28;20182;-69
2021/01/28 09:37:13;;;;;;;2.10;1.90;;;;;;;4.07;100.00;95571.03;5041857;28;20834;-69
2021/01/28 09:39:47;;;;;;;1.53;1.43;;;;;;;4.00;100.00;95571.13;5048579;28;20219;-69
2021/01/28 09:42:33;;;;;;;1.57;1.47;;;;;;;4.07;100.00;95569.22;5047915;28;20584;-70
2021/01/28 09:45:18;;;;;;;1.53;1.43;;;;;;;4.04;100.00;95561.09;5049862;28;20198;-70
2021/01/28 09:47:56;;;;;;;1.50;1.40;;;;;;;4.13;100.00;95549.44;5050907;28;20538;-71
2021/01/28 09:50:23;;;;;;;1.40;1.30;;;;;;;4.11;100.00;95560.03;5053026;28;20235;-70
2021/01/28 09:52:50;;;;;;;1.93;1.40;;;;;;;4.10;100.00;95555.06;5041965;28;20194;-70
2021/01/28 09:55:22;;;;;;;1.60;1.50;;;;;;;4.08;100.00;95550.09;5043368;28;20657;-70
2021/01/28 09:57:49;;;;;;;1.10;1.10;;;;;;;4.17;100.00;95548.00;5050274;28;20178;-69
2021/01/28 10:00:20;;;;;;;2.83;1.40;;;;;;;4.12;100.00;95556.41;5052540;28;20265;-69
2021/01/28 10:02:55;;;;;;;2.13;1.30;;;;;;;4.13;100.00;95565.78;5034338;28;20193;-69
2021/01/28 10:05:24;;;;;;;1.50;1.40;;;;;;;4.17;100.00;95563.56;5052803;28;20208;-68
2021/01/28 10:07:50;;;;;;;2.53;1.10;;;;;;;4.16;100.00;95564.56;5051639;28;20190;-71
2021/01/28 10:10:21;;;;;;;1.10;1.10;;;;;;;4.28;100.00;95554.25;5053409;28;20192;-73
2021/01/28 10:12:48;;;;;;;1.90;1.37;;;;;;;4.17;100.00;95551.41;5051225;28;20178;-72
2021/01/28 10:15:14;;;;;;;1.17;1.03;;;;;;;4.22;100.00;95553.34;5053010;28;20186;-68
2021/01/28 10:17:42;;;;;;;1.63;1.30;;;;;;;4.27;100.00;95552.69;5052040;28;20194;-68
2021/01/28 10:20:08;;;;;;;1.30;1.20;;;;;;;4.23;100.00;95551.53;5051014;28;20174;-69
2021/01/28 10:22:37;;;;;;;1.13;1.03;;;;;;;4.31;100.00;95556.41;5034912;28;20197;-68
2021/01/28 10:25:05;;;;;;;1.10;1.00;;;;;;;4.35;100.00;95554.97;5029622;28;20201;-70
2021/01/28 10:27:30;;;;;;;1.17;1.17;;;;;;;4.40;100.00;95545.50;5049913;28;20186;-68
2021/01/28 10:29:56;;;;;;;1.27;1.27;;;;;;;4.40;100.00;95555.13;5051448;28;20261;-70
2021/01/28 10:32:21;;;;;;;1.20;1.20;;;;;;;4.46;100.00;95546.44;5052110;28;20669;-68
2021/01/28 10:34:47;;;;;;;1.20;1.20;;;;;;;4.48;100.00;95550.41;5025966;28;20223;-69
2021/01/28 10:37:12;;;;;;;1.00;1.00;;;;;;;4.49;100.00;95541.63;5013165;28;20183;-69
2021/01/28 10:39:38;;;;;;;2.87;1.20;;;;;;;4.55;100.00;95537.38;5012119;28;20229;-69
2021/01/28 10:42:04;;;;;;;1.10;1.00;;;;;;;4.62;100.00;95539.88;5011377;28;20255;-69
2021/01/28 10:44:30;;;;;;;1.80;1.40;;;;;;;4.63;100.00;95542.25;5012525;28;20249;-69
2021/01/28 10:46:55;;;;;;;1.00;1.00;;;;;;;4.68;100.00;95534.59;5010620;28;20179;-69
2021/01/28 10:49:21;;;;;;;1.20;1.10;;;;;;;4.69;100.00;95533.56;5012509;28;20634;-68
2021/01/28 10:51:48;;;;;;;1.40;1.20;;;;;;;4.70;100.00;95524.00;5011410;28;20192;-70
2021/01/28 10:54:15;;;;;;;1.27;1.10;;;;;;;4.75;100.00;95517.13;5012598;28;20214;-69
2021/01/28 10:56:40;;;;;;;1.90;1.20;;;;;;;4.74;100.00;95518.13;5027509;28;20180;-68
2021/01/28 10:59:05;;;;;;;0.90;0.90;;;;;;;4.79;100.00;95509.69;5026298;28;20344;-68
2021/01/28 11:01:31;;;;;;;1.60;1.37;;;;;;;4.92;100.00;95505.09;5011914;28;20196;-68
2021/01/28 11:03:57;;;;;;;1.03;1.00;;;;;;;5.06;100.00;95504.91;5011133;28;20265;-68
2021/01/28 11:06:22;;;;;;;0.80;0.80;;;;;;;5.13;100.00;95500.38;5012526;28;20182;-67
2021/01/28 11:08:47;;;;;;;2.47;1.00;;;;;;;5.19;100.00;95491.69;5011358;28;20548;-69
2021/01/28 11:11:15;;;;;;;0.90;0.90;;;;;;;5.24;100.00;95487.41;5012082;28;20222;-68
2021/01/28 11:13:41;;;;;;;2.30;0.90;;;;;;;5.19;100.00;95471.72;5012044;28;20278;-68
2021/01/28 11:16:06;;;;;;;1.90;1.00;;;;;;;5.23;100.00;95480.66;5010691;28;21091;-67
2021/01/28 11:18:32;;;;;;;1.57;0.97;;;;;;;5.27;100.00;95475.78;5027300;28;20195;-67
2021/01/28 11:20:57;;;;;;;1.97;0.80;;;;;;;5.30;100.00;95464.94;5011068;28;20274;-67
2021/01/28 11:23:22;;;;;;;1.13;0.90;;;;;;;5.31;100.00;95443.16;5008503;28;20537;-69
2021/01/28 11:25:48;;;;;;;1.63;0.90;;;;;;;5.17;100.00;95440.00;5008930;28;20265;-68
2021/01/28 11:28:13;;;;;;;0.90;0.90;;;;;;;5.28;100.00;95436.63;5011911;28;20655;-68
2021/01/28 11:30:39;;;;;;;1.27;0.90;;;;;;;5.23;100.00;95426.13;5011124;28;20264;-68
2021/01/28 11:33:06;;;;;;;2.67;1.07;;;;;;;5.23;100.00;95426.13;5010556;28;20187;-67
2021/01/28 11:35:34;;;;;;;1.00;0.90;;;;;;;5.37;100.00;95430.06;5031462;28;20225;-68
2021/01/28 11:38:01;;;;;;;2.27;1.00;;;;;;;5.42;100.00;95424.97;5050780;28;20190;-67
2021/01/28 11:40:28;;;;;;;1.03;1.00;;;;;;;5.66;100.00;95430.91;5047855;28;20193;-68
2021/01/28 11:42:54;;;;;;;1.27;1.00;;;;;;;5.82;100.00;95422.41;5045350;28;20638;-68
2021/01/28 11:45:26;;;;;;;1.00;1.00;;;;;;;6.01;100.00;95427.47;5050277;28;20194;-68
2021/01/28 11:47:51;;;;;;;2.03;1.00;;;;;;;6.11;100.00;95431.06;5050271;28;20223;-68
2021/01/28 11:50:17;;;;;;;0.80;0.80;;;;;;;6.08;100.00;95428.13;5050744;28;20189;-68
2021/01/28 11:52:44;;;;;;;1.00;1.00;;;;;;;6.15;100.00;95423.56;5051149;28;20272;-68
2021/01/28 11:55:13;;;;;;;1.10;1.00;;;;;;;6.13;100.00;95417.84;5050159;28;20201;-68